This demonstration page uses our WeatherBlox Daily Observations layout. Learn more.

Left ArrowRight Arrow

39.92423, -83.80882

Hourly Observations for March 23, 2019

Temp ( °F °C ) Dew Point ( °F °C ) Humidity (%) Winds ( mph kmh ) Pressure ( in mb ) Visibility ( mi km ) Precip ( " mm )
12:56 am 00:56 Clear 30 -1.1 25 -3.9 82 82 NW 7 11 30.2 1023 10 16.0934 0 0
1:56 am 01:56 Clear 28 -2.2 25 -3.9 88 88 NW 6 9 30.2 1023 10 16.0934 0 0
2:56 am 02:56 Clear 26 -3.3 24 -4.4 92 92 NNW 7 11 30.22 1023 10 16.0934 0 0
3:56 am 03:56 Clear 26 -3.3 24 -4.4 92 92 NNW 6 9 30.22 1024 10 16.0934 0 0
4:56 am 04:56 Clear 26 -3.3 24 -4.4 92 92 NW 6 9 30.24 1024 10 16.0934 0 0
5:56 am 05:56 Clear 25 -3.9 24 -4.4 96 96 W 3 6 30.25 1025 10 16.0934 0 0
6:56 am 06:56 Clear 23 -5 23 -5 100 100 W 3 6 30.27 1025 10 16.0934 0 0
7:56 am 07:56 Sunny 25 -3.9 24 -4.4 96 96 NW 3 6 30.3 1026 10 16.0934 0 0
9:42 am 09:42 Mostly Sunny 30 -1 28 -2 93 93 W 5 7 30.36 1028 10 16.0934 0 0
9:56 am 09:56 Sunny 31 -0.6 27 -2.8 85 85 NNW 5 7 30.34 1028 10 16.0934 0 0
10:56 am 10:56 Sunny 35 1.7 26 -3.3 70 70 VRB 5 7 30.36 1028 10 16.0934 0 0
11:56 am 11:56 Sunny 40 4.4 26 -3.3 58 58 WSW 6 9 30.36 1028 10 16.0934 0 0
12:56 pm 12:56 Sunny 43 6.1 24 -4.4 47 47 SW 6 9 30.36 1028 10 16.0934 0 0
1:56 pm 13:56 Sunny 47 8.3 20 -6.7 34 34 WNW 10 17 30.35 1028 10 16.0934 0 0
2:56 pm 14:56 Sunny 49 9.4 18 -7.8 29 29 VRB 7 11 30.33 1027 10 16.0934 0 0
3:56 pm 15:56 Sunny 51 10.6 19 -7.2 28 28 W 8 13 30.31 1026 10 16.0934 0 0
4:56 pm 16:56 Sunny 52 11.1 21 -6.1 30 30 W 6 9 30.31 1026 10 16.0934 0 0
5:56 pm 17:56 Sunny 52 11.1 21 -6.1 30 30 W 8 13 30.3 1026 10 16.0934 0 0
6:56 pm 18:56 Sunny 52 11.1 20 -6.7 28 28 W 5 7 30.3 1026 10 16.0934 0 0
7:56 pm 19:56 Clear 48 8.9 17 -8.3 29 29 Calm 30.3 1026 10 16.0934 0 0
9:56 pm 21:56 Clear 35 1.7 24 -4.4 64 64 SE 3 6 30.31 1026 10 16.0934 0 0
10:56 pm 22:56 Clear 33 0.6 24 -4.4 70 70 SSE 5 7 30.3 1026 10 16.0934 0 0
11:56 pm 23:56 Clear 34 1.1 23 -5 64 64 SSE 6 9 30.29 1026 10 16.0934 0 0

Powered by AerisWeather